Baton Rouge Metropolitan Airport

Date: 2024-06-11 04:34:00Z

Type: SPECI

Weather: Thunderstorms

Winds: 310° at 5 kts

Visibility: 10+

Ceiling (AGL FT): Clouds BROKEN at 2600, OVERCAST at 8000, SCATTERED at 5000, OVERCAST at 4500

RAW METAR: KBTR 110434Z 31005KT 10SM TS BKN026 OVC080 26/23 A2987 RMK AO2 TSE33B34 T02610228

project-image